• Join FlightAware (Why Join?)
  • Login
  • US Flag 
03:10PM EDT


 

Airport Tracker/Info


-or-


 

Live Flight TrackerFlight Track Log ✈ N1576C ✈ 15-May-2013 ✈ KGNV - KISM

Flight Track Log - Related Links

Times and Time Zones

All times are in EDT time to prevent confusion due to time zone crossing. See the N1576C flight status page for this flight to view local times or setup timezone preferences in your user account.

Time Position Orientation Groundspeed Altitude Reporting Facility
EDT Latitude Longitude Course Direction KTS MPH feet Rate Location/Type
08:40PM 29.6867 -82.2878 169° South 80 92 400  Level Jacksonville Center
08:41PM 29.6764 -82.2856 169° South 68 78 800 600 Climbing Jacksonville Center
08:42PM 29.6617 -82.2736 145° Southeast 71 82 1,500 600 Climbing Jacksonville Center
08:43PM 29.6408 -82.2689 169° South 75 86 2,100 540 Climbing Jacksonville Center
08:44PM 29.6219 -82.2667 174° South 70 81 2,700 540 Climbing Jacksonville Center
08:45PM 29.6011 -82.2644 175° South 72 83 3,300 540 Climbing Jacksonville Center
08:46PM 29.5822 -82.2622 174° South 70 81 3,800 480 Climbing Jacksonville Center
08:47PM 29.5614 -82.2597 174° South 70 81 4,300 420 Climbing Jacksonville Center
08:48PM 29.5425 -82.2600 181° South 68 78 4,700 360 Climbing Jacksonville Center
08:49PM 29.5239 -82.2578 174° South 65 75 5,100 180 Climbing Jacksonville Center
08:50PM 29.5008 -82.2531 170° South 83 96 5,100  Level Jacksonville Center
08:51PM 29.4736 -82.2533 181° South 100 115 5,100  Level Jacksonville Center
08:52PM 29.4422 -82.2511 176° South 98 113 5,100 -60 Level Jacksonville Center
08:53PM 29.4153 -82.2489 176° South 97 112 5,000  Descending Jacksonville Center
08:54PM 29.3881 -82.2492 181° South 93 107 5,100  Climbing Jacksonville Center
08:55PM 29.3608 -82.2469 176° South 100 115 5,000  Descending Jacksonville Center
08:56PM 29.3317 -82.2447 176° South 100 115 5,100  Climbing Jacksonville Center
08:57PM 29.3044 -82.2425 176° South 100 115 5,100  Level Jacksonville Center
08:58PM 29.2772 -82.2378 171° South 101 116 5,100  Level Jacksonville Center
08:59PM 29.2481 -82.2333 172° South 102 117 5,100  Level Jacksonville Center
09:00PM 29.2231 -82.2311 176° South 104 120 5,100  Level Jacksonville Center
09:01PM 29.1917 -82.2314 180° South 106 122 5,100  Level Jacksonville Center
09:02PM 29.1644 -82.2194 159° South 109 125 5,100  Level Jacksonville Center
09:03PM 29.1394 -82.2008 147° Southeast 108 124 5,100  Level Jacksonville Center
09:04PM 29.1142 -82.1819 147° Southeast 108 124 5,100  Level Jacksonville Center
09:05PM 29.0892 -82.1583 140° Southeast 110 127 5,100 -60 Level Jacksonville Center
09:06PM 29.0619 -82.1372 146° Southeast 108 124 5,000  Descending Jacksonville Center
09:08PM 29.0167 -82.1000 144° Southeast 106 122 5,100  Climbing Orlando TRACON
09:09PM 29.0000 -82.0833 139° Southeast 107 123 5,100  Level Orlando TRACON
09:10PM 28.9667 -82.0667 156° South 110 127 5,100  Level Orlando TRACON
09:11PM 28.9500 -82.0500 139° Southeast 107 123 5,100  Level Orlando TRACON
09:12PM 28.9167 -82.0167 139° Southeast 107 123 5,100  Level Orlando TRACON
09:13PM 28.9000 -82.0000 139° Southeast 103 119 5,100  Level Orlando TRACON
09:14PM 28.8667 -81.9833 156° South 104 120 5,100  Level Orlando TRACON
09:15PM 28.8500 -81.9667 139° Southeast 104 120 5,100  Level Orlando TRACON
09:16PM 28.8333 -81.9500 139° Southeast 106 122 5,100  Level Orlando TRACON
09:17PM 28.8000 -81.9333 156° South 103 119 5,100  Level Orlando TRACON
09:18PM 28.7833 -81.9167 139° Southeast 101 116 5,100  Level Orlando TRACON
09:19PM 28.7667 -81.9000 139° Southeast 98 113 5,100 -60 Level Orlando TRACON
09:20PM 28.7333 -81.8833 156° South 102 117 5,000 -60 Descending Orlando TRACON
09:21PM 28.7167 -81.8667 139° Southeast 101 116 5,000  Level Orlando TRACON
09:22PM 28.6833 -81.8500 156° South 101 116 5,100  Climbing Orlando TRACON
09:23PM 28.6667 -81.8333 139° Southeast 99 114 5,100 -60 Level Orlando TRACON
09:24PM 28.6500 -81.8167 139° Southeast 101 116 5,000 -420 Descending Orlando TRACON
09:25PM 28.6167 -81.7833 139° Southeast 119 137 4,300 -720 Descending Orlando TRACON
09:26PM 28.6000 -81.7500 120° Southeast 119 137 3,600 -780 Descending Orlando TRACON
09:27PM 28.5833 -81.7333 139° Southeast 111 128 2,800 -720 Descending Orlando TRACON
09:28PM 28.5667 -81.7000 120° Southeast 98 113 2,100 -420 Descending Orlando TRACON
09:29PM 28.5500 -81.6833 139° Southeast 86 99 2,000  Descending Orlando TRACON
09:30PM 28.5333 -81.6667 139° Southeast 75 86 2,100  Climbing Orlando TRACON
09:31PM 28.5167 -81.6500 139° Southeast 83 96 2,100 -60 Level Orlando TRACON
09:32PM 28.5000 -81.6167 120° Southeast 89 102 2,000 -60 Descending Orlando TRACON
09:33PM 28.4833 -81.6000 139° Southeast 88 101 2,000  Level Orlando TRACON
09:34PM 28.4667 -81.5833 139° Southeast 88 101 2,000  Level Orlando TRACON
09:35PM 28.4500 -81.5667 139° Southeast 82 94 2,100  Climbing Orlando TRACON
09:36PM 28.4333 -81.5333 120° Southeast 85 98 2,000 -60 Descending Orlando TRACON
09:37PM 28.4167 -81.5333 180° South 84 97 2,000 -240 Level Orlando TRACON
09:38PM 28.4000 -81.5167 139° Southeast 90 104 1,600 -420 Descending Orlando TRACON
09:39PM 28.3667 -81.5000 156° South 96 110 1,200 -240 Descending Orlando TRACON
09:40PM 28.3500 -81.4833 139° Southeast 83 96 1,200 -120 Level Orlando TRACON
09:41PM 28.3333 -81.4667 139° Southeast 86 99 1,000 -360 Descending Orlando TRACON
09:42PM 28.3167 -81.4500 139° Southeast 86 99 500 -540 Descending Orlando TRACON
09:44PM 28.2898 -81.4371 139° Southeast  Level Estimated
09:51PM 28.2898 -81.4371 139° Southeast  Level Estimated
09:52PM 28.2898 -81.4371 139° Southeast  Level Estimated
09:53PM 28.2898 -81.4371 139° Southeast  Level Estimated